LLBO weather

Habonim Airfield
Haifa District, Israel

Public forecast

Using degrees Celsius for public forecast. Weather courtesy of forecast.io.

METAR (pilot weather report)

Closest report is Haifa International Airport, 11.1 nm (20.5 km) NNE. Retrieved 2019/08/23 05:50 UTC (36 minutes ago):

LLHA 230550Z 35004KT CAVOK 29/23 Q1008

TAF (pilot weather forecast)

Closest forecast is Haifa International Airport, 11.1 nm (20.5 km) NNE. Retrieved 2019/08/23 06:00 UTC (26 minutes ago):

TAF LLHA 230507Z 2306/2406 VRB04KT 9999 FEW025 BECMG 2307/2309 32010KT CAVOK BECMG 2319/2322 VRB04KT 9999 FEW022 TX32/2311Z TN26/2403Z